Time;durP1;ratioP1;P1;durP2;ratioP2;P2;SDS_P1;SDS_P2;PMS_P1;PMS_P2;Temp;Humidity;BMP_temperature;BMP_pressure;BME280_temperature;BME280_humidity;BME280_pressure;Samples;Min_cycle;Max_cycle;Signal;HPM_P1;HPM_P2
2023/10/14 00:02:32;;;;;;;;;;;22.10;57.60;;;;;;5071230;28;19928;-77
2023/10/14 00:04:59;;;;;;;;;;;22.10;57.50;;;;;;5066783;28;19982;-80
2023/10/14 00:07:26;;;;;;;;;;;22.10;57.60;;;;;;5066519;28;19931;-76
2023/10/14 00:09:53;;;;;;;;;;;22.10;57.50;;;;;;5063792;28;19929;-76
2023/10/14 00:12:21;;;;;;;;;;;22.10;57.60;;;;;;5062428;28;19936;-76
2023/10/14 00:14:48;;;;;;;;;;;22.10;57.50;;;;;;5062041;28;19967;-80
2023/10/14 00:17:18;;;;;;;;;;;22.10;57.50;;;;;;5061227;28;20289;-77
2023/10/14 00:19:49;;;;;;;;;;;22.10;57.50;;;;;;5066997;28;19947;-79
2023/10/14 00:22:17;;;;;;;;;;;22.10;57.70;;;;;;5065384;28;20037;-75
2023/10/14 00:24:48;;;;;;;;;;;22.10;57.80;;;;;;5066131;28;19924;-76
2023/10/14 00:27:15;;;;;;;;;;;22.10;57.80;;;;;;5064115;28;20586;-78
2023/10/14 00:29:42;;;;;;;;;;;22.00;57.70;;;;;;5064025;28;20591;-76
2023/10/14 00:32:10;;;;;;;;;;;22.00;57.80;;;;;;5060321;28;19947;-75
2023/10/14 00:34:36;;;;;;;;;;;22.10;57.90;;;;;;5058994;28;20027;-74
2023/10/14 00:37:03;;;;;;;;;;;22.00;57.90;;;;;;5063253;28;19933;-79
2023/10/14 00:39:31;;;;;;;;;;;22.00;57.90;;;;;;5063630;28;19920;-79
2023/10/14 00:41:58;;;;;;;;;;;22.00;58.00;;;;;;5061563;28;20324;-80
2023/10/14 00:44:25;;;;;;;;;;;22.00;58.00;;;;;;5067054;28;20283;-77
2023/10/14 00:46:54;;;;;;;;;;;22.00;58.10;;;;;;5065817;28;19928;-80
2023/10/14 00:49:22;;;;;;;;;;;22.00;58.20;;;;;;5064618;28;20394;-77
2023/10/14 00:51:51;;;;;;;;;;;22.00;58.20;;;;;;5068236;28;19932;-75
2023/10/14 00:54:27;;;;;;;;;;;22.00;58.30;;;;;;5065920;28;19975;-77
2023/10/14 00:57:00;;;;;;;;;;;22.00;58.40;;;;;;5060835;28;20542;-76
2023/10/14 00:59:28;;;;;;;;;;;22.00;58.40;;;;;;5065580;28;19929;-78
2023/10/14 01:01:58;;;;;;;;;;;22.00;58.40;;;;;;5064921;28;19936;-76
2023/10/14 01:04:32;;;;;;;;;;;22.00;58.50;;;;;;5063920;28;19935;-75
2023/10/14 01:07:03;;;;;;;;;;;22.00;58.60;;;;;;5065779;28;19970;-77
2023/10/14 01:09:42;;;;;;;;;;;22.00;58.60;;;;;;5061870;28;19928;-75
2023/10/14 01:12:16;;;;;;;;;;;22.00;58.70;;;;;;5062938;28;19932;-75
2023/10/14 01:14:43;;;;;;;;;;;22.00;58.80;;;;;;5061698;28;19934;-76
2023/10/14 01:17:12;;;;;;;;;;;22.00;58.90;;;;;;5064754;28;19928;-80
2023/10/14 01:19:39;;;;;;;;;;;22.00;59.00;;;;;;5063444;28;19955;-74
2023/10/14 01:22:12;;;;;;;;;;;22.00;59.10;;;;;;5064761;28;19939;-79
2023/10/14 01:24:41;;;;;;;;;;;22.00;59.20;;;;;;5056665;28;19924;-78
2023/10/14 01:27:08;;;;;;;;;;;22.00;59.30;;;;;;5062310;28;20023;-78
2023/10/14 01:29:39;;;;;;;;;;;21.90;59.30;;;;;;5060858;28;19982;-80
2023/10/14 01:32:25;;;;;;;;;;;21.90;59.40;;;;;;5065442;28;19968;-77
2023/10/14 01:34:56;;;;;;;;;;;21.90;59.50;;;;;;5064171;28;20402;-80
2023/10/14 01:37:26;;;;;;;;;;;22.00;59.70;;;;;;5062517;28;19928;-75
2023/10/14 01:39:57;;;;;;;;;;;22.00;59.80;;;;;;5064801;28;19929;-75
2023/10/14 01:42:23;;;;;;;;;;;21.90;59.90;;;;;;5062572;28;19928;-76
2023/10/14 01:44:53;;;;;;;;;;;22.00;59.90;;;;;;5065109;28;19932;-76
2023/10/14 01:47:20;;;;;;;;;;;21.90;60.00;;;;;;5063128;28;20657;-76
2023/10/14 01:49:47;;;;;;;;;;;21.90;60.10;;;;;;5065849;28;19993;-75
2023/10/14 01:52:19;;;;;;;;;;;21.90;60.20;;;;;;5068746;28;19931;-80
2023/10/14 01:54:47;;;;;;;;;;;21.90;60.30;;;;;;5064218;28;19932;-79
2023/10/14 01:57:16;;;;;;;;;;;21.90;60.40;;;;;;5062998;28;19928;-76
2023/10/14 01:59:43;;;;;;;;;;;21.90;60.30;;;;;;5067355;28;19939;-77
2023/10/14 02:02:11;;;;;;;;;;;21.90;60.40;;;;;;5063051;28;19967;-78
2023/10/14 02:04:38;;;;;;;;;;;21.90;60.50;;;;;;5072079;28;19999;-69
2023/10/14 02:07:18;;;;;;;;;;;21.90;60.60;;;;;;5069222;28;19935;-68
2023/10/14 02:09:44;;;;;;;;;;;21.90;61.40;;;;;;5065786;28;19966;-70
2023/10/14 02:12:12;;;;;;;;;;;21.90;60.80;;;;;;5066183;28;19928;-70
2023/10/14 02:14:40;;;;;;;;;;;21.90;60.90;;;;;;5067574;28;19975;-70
2023/10/14 02:17:10;;;;;;;;;;;21.90;61.10;;;;;;5065581;28;19928;-70
2023/10/14 02:19:37;;;;;;;;;;;21.90;61.20;;;;;;5068752;28;21323;-70
2023/10/14 02:22:09;;;;;;;;;;;21.90;61.30;;;;;;5066649;28;19932;-69
2023/10/14 02:24:36;;;;;;;;;;;21.90;61.40;;;;;;5065069;28;19929;-69
2023/10/14 02:27:10;;;;;;;;;;;21.90;61.60;;;;;;5068993;28;19928;-69
2023/10/14 02:29:43;;;;;;;;;;;21.90;61.60;;;;;;5067363;28;19936;-69
2023/10/14 02:32:12;;;;;;;;;;;21.90;61.70;;;;;;5065740;28;19933;-70
2023/10/14 02:34:38;;;;;;;;;;;21.90;61.80;;;;;;5066567;28;20037;-69
2023/10/14 02:37:07;;;;;;;;;;;21.90;61.90;;;;;;5065609;28;19963;-69
2023/10/14 02:39:33;;;;;;;;;;;21.80;62.70;;;;;;5066130;28;21070;-69
2023/10/14 02:42:06;;;;;;;;;;;21.90;62.30;;;;;;5063631;28;19928;-70
2023/10/14 02:44:33;;;;;;;;;;;21.80;62.40;;;;;;5065711;28;19935;-69
2023/10/14 02:47:05;;;;;;;;;;;21.80;62.60;;;;;;5063450;28;20394;-69
2023/10/14 02:49:37;;;;;;;;;;;21.90;62.80;;;;;;5065254;28;19929;-69
2023/10/14 02:52:08;;;;;;;;;;;21.80;62.70;;;;;;5062364;28;19959;-70
2023/10/14 02:54:35;;;;;;;;;;;21.80;62.90;;;;;;5062978;28;19932;-68
2023/10/14 02:57:12;;;;;;;;;;;21.80;62.90;;;;;;5061905;28;19928;-69
2023/10/14 02:59:43;;;;;;;;;;;21.80;63.10;;;;;;5062697;28;20317;-70
2023/10/14 03:02:15;;;;;;;;;;;21.80;63.30;;;;;;5064518;28;19940;-69
2023/10/14 03:04:47;;;;;;;;;;;21.80;63.30;;;;;;5067307;28;19935;-69
2023/10/14 03:07:21;;;;;;;;;;;21.80;63.30;;;;;;5066989;28;19928;-70
2023/10/14 03:09:48;;;;;;;;;;;21.80;63.50;;;;;;5068429;28;20018;-68
2023/10/14 03:12:18;;;;;;;;;;;21.80;63.50;;;;;;5070054;28;19928;-69
2023/10/14 03:14:48;;;;;;;;;;;21.80;63.50;;;;;;5066524;28;19936;-69
2023/10/14 03:17:24;;;;;;;;;;;21.70;63.60;;;;;;5066607;28;19928;-69
2023/10/14 03:19:53;;;;;;;;;;;21.80;63.70;;;;;;5061323;28;19932;-68
2023/10/14 03:22:23;;;;;;;;;;;21.80;63.80;;;;;;5065248;28;20054;-70
2023/10/14 03:24:50;;;;;;;;;;;21.80;64.10;;;;;;5064127;28;19952;-68
2023/10/14 03:27:17;;;;;;;;;;;21.70;64.10;;;;;;5067509;28;19967;-69
2023/10/14 03:29:47;;;;;;;;;;;21.80;64.70;;;;;;5064635;28;19928;-69
2023/10/14 03:32:14;;;;;;;;;;;21.70;64.60;;;;;;5064264;28;19936;-69
2023/10/14 03:34:43;;;;;;;;;;;21.70;65.40;;;;;;5069102;28;19935;-68
2023/10/14 03:37:20;;;;;;;;;;;21.70;66.20;;;;;;5068281;28;19935;-69
2023/10/14 03:40:09;;;;;;;;;;;21.70;69.20;;;;;;5068535;28;19928;-69
2023/10/14 03:42:35;;;;;;;;;;;21.70;70.80;;;;;;5067852;28;20016;-68
2023/10/14 03:45:01;;;;;;;;;;;21.60;70.60;;;;;;5069397;28;20311;-69
2023/10/14 03:47:34;;;;;;;;;;;21.60;71.10;;;;;;5067427;28;19929;-69
2023/10/14 03:50:02;;;;;;;;;;;21.60;71.50;;;;;;5068246;28;19929;-69
2023/10/14 03:52:29;;;;;;;;;;;21.50;72.10;;;;;;5066146;28;19929;-69
2023/10/14 03:54:55;;;;;;;;;;;21.50;72.10;;;;;;5065110;28;20365;-69
2023/10/14 03:57:33;;;;;;;;;;;21.40;72.40;;;;;;5070462;28;19932;-69
2023/10/14 04:00:12;;;;;;;;;;;21.40;72.40;;;;;;5067582;28;19975;-69
2023/10/14 04:02:40;;;;;;;;;;;21.30;72.50;;;;;;5065815;28;19928;-69
2023/10/14 04:05:12;;;;;;;;;;;21.30;72.70;;;;;;5065821;28;19939;-69
2023/10/14 04:07:40;;;;;;;;;;;21.20;72.80;;;;;;5062748;28;19984;-69
2023/10/14 04:10:10;;;;;;;;;;;21.20;72.90;;;;;;5069932;28;19958;-69
2023/10/14 04:12:38;;;;;;;;;;;21.10;72.90;;;;;;5062716;28;19936;-69
2023/10/14 04:15:33;;;;;;;;;;;21.10;73.30;;;;;;5064170;28;19932;-70
2023/10/14 04:18:00;;;;;;;;;;;21.00;73.70;;;;;;5065364;28;19948;-69
2023/10/14 04:20:33;;;;;;;;;;;21.00;73.70;;;;;;5064743;28;19932;-69
2023/10/14 04:23:05;;;;;;;;;;;20.90;73.70;;;;;;5062500;28;19928;-69
2023/10/14 04:25:39;;;;;;;;;;;20.80;74.70;;;;;;5066265;28;19935;-71
2023/10/14 04:28:25;;;;;;;;;;;20.80;74.30;;;;;;5064512;28;19939;-69
2023/10/14 04:30:51;;;;;;;;;;;20.70;74.50;;;;;;5063107;28;19960;-69
2023/10/14 04:33:23;;;;;;;;;;;20.70;74.90;;;;;;5064197;28;20015;-69
2023/10/14 04:36:22;;;;;;;;;;;20.60;75.20;;;;;;5061695;28;19929;-70
2023/10/14 04:39:04;;;;;;;;;;;20.60;75.30;;;;;;5062702;28;19932;-69
2023/10/14 04:41:31;;;;;;;;;;;20.50;75.60;;;;;;5061385;28;20042;-69
2023/10/14 04:44:03;;;;;;;;;;;20.50;75.80;;;;;;5063453;28;19928;-70
2023/10/14 04:46:45;;;;;;;;;;;20.40;75.90;;;;;;5057684;28;19929;-68
2023/10/14 04:49:15;;;;;;;;;;;20.30;76.10;;;;;;5063503;28;20451;-69
2023/10/14 04:51:52;;;;;;;;;;;20.30;76.30;;;;;;5063075;28;20011;-69
2023/10/14 04:54:20;;;;;;;;;;;20.30;76.60;;;;;;5064105;28;19959;-69
2023/10/14 04:56:46;;;;;;;;;;;20.20;76.80;;;;;;5063404;28;19935;-70
2023/10/14 04:59:19;;;;;;;;;;;20.20;77.40;;;;;;5062200;28;20495;-69
2023/10/14 05:01:48;;;;;;;;;;;20.10;77.30;;;;;;5059265;28;19933;-68
2023/10/14 05:04:19;;;;;;;;;;;20.10;77.50;;;;;;5058313;28;21461;-69
2023/10/14 05:06:51;;;;;;;;;;;20.00;77.70;;;;;;5066924;28;19932;-69
2023/10/14 05:09:30;;;;;;;;;;;20.00;77.70;;;;;;5062470;28;20015;-69
2023/10/14 05:11:57;;;;;;;;;;;20.00;77.90;;;;;;5065132;28;19935;-70
2023/10/14 05:14:34;;;;;;;;;;;19.90;78.10;;;;;;5064740;28;20426;-69
2023/10/14 05:17:13;;;;;;;;;;;19.90;78.30;;;;;;5066025;28;19928;-68
2023/10/14 05:19:42;;;;;;;;;;;19.90;78.40;;;;;;5064934;28;19928;-69
2023/10/14 05:22:18;;;;;;;;;;;19.90;78.50;;;;;;5064939;28;19929;-69
2023/10/14 05:24:48;;;;;;;;;;;19.80;78.70;;;;;;5064337;28;19932;-68
2023/10/14 05:27:17;;;;;;;;;;;19.80;78.80;;;;;;5066184;28;20044;-69
2023/10/14 05:29:47;;;;;;;;;;;19.70;78.80;;;;;;5068330;28;20019;-70
2023/10/14 05:32:15;;;;;;;;;;;19.70;78.80;;;;;;5060825;28;20283;-68
2023/10/14 05:34:43;;;;;;;;;;;19.70;78.90;;;;;;5063363;28;19933;-70
2023/10/14 05:37:11;;;;;;;;;;;19.60;79.00;;;;;;5062749;28;20076;-69
2023/10/14 05:39:38;;;;;;;;;;;19.60;79.10;;;;;;5059639;28;20499;-69
2023/10/14 05:42:13;;;;;;;;;;;19.60;79.30;;;;;;5064635;28;20513;-68
2023/10/14 05:44:46;;;;;;;;;;;19.60;79.30;;;;;;5061473;28;19933;-69
2023/10/14 05:47:13;;;;;;;;;;;19.60;79.40;;;;;;5060936;28;19932;-67
2023/10/14 05:49:39;;;;;;;;;;;19.50;79.40;;;;;;5064265;28;20708;-68
2023/10/14 05:52:06;;;;;;;;;;;19.50;79.60;;;;;;5061931;28;19932;-69
2023/10/14 05:54:34;;;;;;;;;;;19.50;79.60;;;;;;5058573;28;19936;-69
2023/10/14 05:57:02;;;;;;;;;;;19.50;79.70;;;;;;5063482;28;19939;-69
2023/10/14 05:59:29;;;;;;;;;;;19.40;79.70;;;;;;5058675;28;19932;-70
2023/10/14 06:01:56;;;;;;;;;;;19.40;79.80;;;;;;5062195;28;20394;-68
2023/10/14 06:04:22;;;;;;;;;;;19.40;79.90;;;;;;5061675;28;19928;-68
2023/10/14 06:06:49;;;;;;;;;;;19.40;80.00;;;;;;5057243;28;19928;-69
2023/10/14 06:09:17;;;;;;;;;;;19.40;80.10;;;;;;5059431;28;19932;-70
2023/10/14 06:11:46;;;;;;;;;;;19.30;80.10;;;;;;5062955;28;20027;-68
2023/10/14 06:14:13;;;;;;;;;;;19.30;80.10;;;;;;5063273;28;19967;-69
2023/10/14 06:16:39;;;;;;;;;;;19.30;80.20;;;;;;5060594;28;20156;-69
2023/10/14 06:19:08;;;;;;;;;;;19.30;80.30;;;;;;5058629;28;20357;-69
2023/10/14 06:21:34;;;;;;;;;;;19.20;80.30;;;;;;5062875;28;19964;-69
2023/10/14 06:24:04;;;;;;;;;;;19.20;80.80;;;;;;5060406;28;19928;-69
2023/10/14 06:26:34;;;;;;;;;;;19.20;82.00;;;;;;5067490;28;19928;-69
2023/10/14 06:29:02;;;;;;;;;;;19.10;81.70;;;;;;5064927;28;19936;-69
2023/10/14 06:31:28;;;;;;;;;;;19.10;81.70;;;;;;5068981;28;19935;-69
2023/10/14 06:33:55;;;;;;;;;;;19.10;81.70;;;;;;5068385;28;19959;-70
2023/10/14 06:36:24;;;;;;;;;;;19.00;81.60;;;;;;5069626;28;19929;-69
2023/10/14 06:38:51;;;;;;;;;;;19.00;81.70;;;;;;5072123;28;20035;-69
2023/10/14 06:41:18;;;;;;;;;;;19.00;81.60;;;;;;5071203;28;20016;-69
2023/10/14 06:43:47;;;;;;;;;;;19.00;82.30;;;;;;5068946;28;19946;-68
2023/10/14 06:46:16;;;;;;;;;;;19.00;81.60;;;;;;5070992;28;20007;-70
2023/10/14 06:48:43;;;;;;;;;;;19.00;81.60;;;;;;5071479;28;19964;-69
2023/10/14 06:51:09;;;;;;;;;;;19.00;81.60;;;;;;5069762;28;19935;-66
2023/10/14 06:53:36;;;;;;;;;;;19.00;81.60;;;;;;5067848;28;20010;-70
2023/10/14 06:56:04;;;;;;;;;;;19.00;81.60;;;;;;5066103;28;19978;-69
2023/10/14 06:58:33;;;;;;;;;;;18.90;81.50;;;;;;5068213;28;20003;-69
2023/10/14 07:00:59;;;;;;;;;;;18.90;81.60;;;;;;5067914;28;19977;-69
2023/10/14 07:03:28;;;;;;;;;;;18.90;81.50;;;;;;5066763;28;19933;-68
2023/10/14 07:05:58;;;;;;;;;;;18.90;81.50;;;;;;5068059;28;20372;-70
2023/10/14 07:08:25;;;;;;;;;;;18.90;81.50;;;;;;5070373;28;19928;-67
2023/10/14 07:10:52;;;;;;;;;;;18.90;81.50;;;;;;5068398;28;20321;-70
2023/10/14 07:13:20;;;;;;;;;;;18.90;81.50;;;;;;5068961;28;19932;-70
2023/10/14 07:15:48;;;;;;;;;;;18.90;81.50;;;;;;5064468;28;19932;-75
2023/10/14 07:18:18;;;;;;;;;;;18.90;81.50;;;;;;5061493;28;20017;-76
2023/10/14 07:20:46;;;;;;;;;;;18.80;82.20;;;;;;5063550;28;19929;-76
2023/10/14 07:23:13;;;;;;;;;;;18.90;81.60;;;;;;5065568;28;19928;-76
2023/10/14 07:25:40;;;;;;;;;;;18.90;81.70;;;;;;5065022;28;19966;-76
2023/10/14 07:28:13;;;;;;;;;;;18.80;82.10;;;;;;5065174;28;19932;-76
2023/10/14 07:30:45;;;;;;;;;;;18.80;82.30;;;;;;5063760;28;19990;-75
2023/10/14 07:33:12;;;;;;;;;;;18.80;82.40;;;;;;5068307;28;20078;-74
2023/10/14 07:35:40;;;;;;;;;;;18.80;82.50;;;;;;5064081;28;19963;-74
2023/10/14 07:38:08;;;;;;;;;;;18.80;82.60;;;;;;5065173;28;19976;-74
2023/10/14 07:40:35;;;;;;;;;;;18.80;82.80;;;;;;5064145;28;20298;-75
2023/10/14 07:43:06;;;;;;;;;;;18.80;82.90;;;;;;5066495;28;20425;-74
2023/10/14 07:45:34;;;;;;;;;;;18.80;83.00;;;;;;5065479;28;19971;-75
2023/10/14 07:48:08;;;;;;;;;;;18.80;83.40;;;;;;5070027;28;19960;-74
2023/10/14 07:50:35;;;;;;;;;;;18.80;83.50;;;;;;5065636;28;20387;-75
2023/10/14 07:53:07;;;;;;;;;;;18.80;83.70;;;;;;5065044;28;19928;-76
2023/10/14 07:55:35;;;;;;;;;;;18.80;83.90;;;;;;5064208;28;19943;-75
2023/10/14 07:58:04;;;;;;;;;;;18.70;83.90;;;;;;5063524;28;19936;-75
2023/10/14 08:00:37;;;;;;;;;;;18.70;83.90;;;;;;5062665;28;19948;-74
2023/10/14 08:03:06;;;;;;;;;;;18.70;83.90;;;;;;5065563;28;19935;-74
2023/10/14 08:05:34;;;;;;;;;;;18.70;84.10;;;;;;5066752;28;19939;-74
2023/10/14 08:08:06;;;;;;;;;;;18.70;84.20;;;;;;5069117;28;20393;-73
2023/10/14 08:10:32;;;;;;;;;;;18.60;84.40;;;;;;5066072;28;19935;-74
2023/10/14 08:13:04;;;;;;;;;;;18.60;84.60;;;;;;5064364;28;20671;-74
2023/10/14 08:15:30;;;;;;;;;;;18.60;84.70;;;;;;5062370;28;19934;-74
2023/10/14 08:18:00;;;;;;;;;;;18.60;84.90;;;;;;5065955;28;20313;-74
2023/10/14 08:20:28;;;;;;;;;;;18.60;84.90;;;;;;5061149;28;19935;-75
2023/10/14 08:22:55;;;;;;;;;;;18.50;84.90;;;;;;5065033;28;20028;-73
2023/10/14 08:25:24;;;;;;;;;;;18.50;85.00;;;;;;5057619;28;19933;-74
2023/10/14 08:27:51;;;;;;;;;;;18.50;85.00;;;;;;5062366;28;19939;-74
2023/10/14 08:30:19;;;;;;;;;;;18.50;85.20;;;;;;5063194;28;19932;-74
2023/10/14 08:32:46;;;;;;;;;;;18.50;85.20;;;;;;5066541;28;19928;-74
2023/10/14 08:35:17;;;;;;;;;;;18.50;85.30;;;;;;5067587;28;20524;-74
2023/10/14 08:37:47;;;;;;;;;;;18.50;85.40;;;;;;5064180;28;19928;-75
2023/10/14 08:40:16;;;;;;;;;;;18.40;85.40;;;;;;5065592;28;20378;-74
2023/10/14 08:42:46;;;;;;;;;;;18.40;85.50;;;;;;5064353;28;20405;-75
2023/10/14 08:45:13;;;;;;;;;;;18.40;85.60;;;;;;5062850;28;19951;-75
2023/10/14 08:47:41;;;;;;;;;;;18.40;85.80;;;;;;5068114;28;19928;-75
2023/10/14 08:50:09;;;;;;;;;;;18.30;85.80;;;;;;5062347;28;19936;-75
2023/10/14 08:52:37;;;;;;;;;;;18.30;86.00;;;;;;5063672;28;19928;-75
2023/10/14 08:55:05;;;;;;;;;;;18.30;86.10;;;;;;5062594;28;20018;-74
2023/10/14 08:57:34;;;;;;;;;;;18.30;86.10;;;;;;5067087;28;19938;-74
2023/10/14 09:00:00;;;;;;;;;;;18.30;86.10;;;;;;5061123;28;20002;-75
2023/10/14 09:02:27;;;;;;;;;;;18.20;86.30;;;;;;5061978;28;19932;-74
2023/10/14 09:04:55;;;;;;;;;;;18.30;86.50;;;;;;5064862;28;20303;-74
2023/10/14 09:07:22;;;;;;;;;;;18.30;86.70;;;;;;5063269;28;19947;-75
2023/10/14 09:09:52;;;;;;;;;;;18.20;86.80;;;;;;5062743;28;19929;-75
2023/10/14 09:12:19;;;;;;;;;;;18.20;86.80;;;;;;5063372;28;19939;-75
2023/10/14 09:14:50;;;;;;;;;;;18.20;86.90;;;;;;5064095;28;21551;-75
2023/10/14 09:17:17;;;;;;;;;;;18.20;87.00;;;;;;5062150;28;20419;-74
2023/10/14 09:19:45;;;;;;;;;;;18.20;87.10;;;;;;5063317;28;19932;-75
2023/10/14 09:22:20;;;;;;;;;;;18.10;87.20;;;;;;5062394;28;20022;-75
2023/10/14 09:24:48;;;;;;;;;;;18.20;87.40;;;;;;5058258;28;19928;-74
2023/10/14 09:27:16;;;;;;;;;;;18.10;87.50;;;;;;5063707;28;19941;-75
2023/10/14 09:29:43;;;;;;;;;;;18.10;87.70;;;;;;5068130;28;20030;-75
2023/10/14 09:32:10;;;;;;;;;;;18.10;87.80;;;;;;5064239;28;19935;-75
2023/10/14 09:34:36;;;;;;;;;;;18.10;87.90;;;;;;5068132;28;19928;-75
2023/10/14 09:37:10;;;;;;;;;;;18.10;87.90;;;;;;5064013;28;19935;-75
2023/10/14 09:39:41;;;;;;;;;;;18.00;88.00;;;;;;5061079;28;19967;-75
2023/10/14 09:42:10;;;;;;;;;;;18.10;88.20;;;;;;5063819;28;19932;-73
2023/10/14 09:44:38;;;;;;;;;;;18.00;88.30;;;;;;5061287;28;19971;-75
2023/10/14 09:47:09;;;;;;;;;;;18.00;88.50;;;;;;5060044;28;19932;-75
2023/10/14 09:49:37;;;;;;;;;;;18.00;88.70;;;;;;5061767;28;20015;-75
2023/10/14 09:52:04;;;;;;;;;;;18.00;88.70;;;;;;5058829;28;19963;-75
2023/10/14 09:54:32;;;;;;;;;;;18.00;88.90;;;;;;5060683;28;19928;-75
2023/10/14 09:57:00;;;;;;;;;;;18.00;89.00;;;;;;5062181;28;19924;-75
2023/10/14 09:59:28;;;;;;;;;;;18.00;89.10;;;;;;5063078;28;20054;-75
2023/10/14 10:01:54;;;;;;;;;;;17.90;89.10;;;;;;5061670;28;20519;-74
2023/10/14 10:04:24;;;;;;;;;;;18.00;89.20;;;;;;5061701;28;19950;-75
2023/10/14 10:06:55;;;;;;;;;;;17.90;89.30;;;;;;5067384;28;19928;-75
2023/10/14 10:09:36;;;;;;;;;;;17.90;89.40;;;;;;5068781;28;19939;-75
2023/10/14 10:12:08;;;;;;;;;;;17.90;89.40;;;;;;5067929;28;19928;-75
2023/10/14 10:14:37;;;;;;;;;;;17.90;89.40;;;;;;5070379;28;19935;-75
2023/10/14 10:17:08;;;;;;;;;;;17.90;89.40;;;;;;5068684;28;19950;-75
2023/10/14 10:19:50;;;;;;;;;;;17.90;89.40;;;;;;5067864;28;19935;-75
2023/10/14 10:22:18;;;;;;;;;;;17.90;89.50;;;;;;5069837;28;20397;-75
2023/10/14 10:24:45;;;;;;;;;;;17.90;89.60;;;;;;5066225;28;19932;-75
2023/10/14 10:27:14;;;;;;;;;;;17.90;90.10;;;;;;5065535;28;20389;-75
2023/10/14 10:29:43;;;;;;;;;;;17.90;89.60;;;;;;5067794;28;19934;-75
2023/10/14 10:32:12;;;;;;;;;;;17.90;89.70;;;;;;5063571;28;19938;-73
2023/10/14 10:34:54;;;;;;;;;;;17.90;89.70;;;;;;5066555;28;19929;-75
2023/10/14 10:37:21;;;;;;;;;;;17.80;89.70;;;;;;5067449;28;19928;-76
2023/10/14 10:39:50;;;;;;;;;;;17.80;89.70;;;;;;5070793;28;19932;-74
2023/10/14 10:42:18;;;;;;;;;;;17.80;89.70;;;;;;5066604;28;19932;-74
2023/10/14 10:44:45;;;;;;;;;;;17.80;89.80;;;;;;5065308;28;19925;-74
2023/10/14 10:47:15;;;;;;;;;;;17.80;90.00;;;;;;5064584;28;19932;-75
2023/10/14 10:49:56;;;;;;;;;;;17.80;89.80;;;;;;5069302;28;20661;-75
2023/10/14 10:52:24;;;;;;;;;;;17.80;89.90;;;;;;5064310;28;19928;-73
2023/10/14 10:54:52;;;;;;;;;;;17.70;89.90;;;;;;5060957;28;20758;-74
2023/10/14 10:57:19;;;;;;;;;;;17.70;90.00;;;;;;5069707;28;20054;-74
2023/10/14 10:59:46;;;;;;;;;;;17.70;90.00;;;;;;5071467;28;19935;-74
2023/10/14 11:02:13;;;;;;;;;;;17.70;90.00;;;;;;5065420;28;19932;-73
2023/10/14 11:04:41;;;;;;;;;;;17.70;90.00;;;;;;5068513;28;19936;-74
2023/10/14 11:07:08;;;;;;;;;;;17.70;90.00;;;;;;5070629;28;19935;-74
2023/10/14 11:09:39;;;;;;;;;;;17.70;90.00;;;;;;5065880;28;19936;-74
2023/10/14 11:12:06;;;;;;;;;;;17.70;89.90;;;;;;5065195;28;19959;-74
2023/10/14 11:14:34;;;;;;;;;;;17.70;89.90;;;;;;5066822;28;20294;-74
2023/10/14 11:17:00;;;;;;;;;;;17.70;89.80;;;;;;5059317;28;20398;-74
2023/10/14 11:19:27;;;;;;;;;;;17.70;89.80;;;;;;5065469;28;19967;-73
2023/10/14 11:21:58;;;;;;;;;;;17.60;89.80;;;;;;5073300;28;19939;-74
2023/10/14 11:24:24;;;;;;;;;;;17.60;89.60;;;;;;5066983;28;19932;-74
2023/10/14 11:26:51;;;;;;;;;;;17.70;89.50;;;;;;5064070;28;19937;-73
2023/10/14 11:29:18;;;;;;;;;;;17.60;89.40;;;;;;5064580;28;20649;-74
2023/10/14 11:31:46;;;;;;;;;;;17.60;89.30;;;;;;5066018;28;19928;-74
2023/10/14 11:34:13;;;;;;;;;;;17.60;89.30;;;;;;5068085;28;19947;-74
2023/10/14 11:36:41;;;;;;;;;;;17.60;89.20;;;;;;5065513;28;19928;-74
2023/10/14 11:39:12;;;;;;;;;;;17.60;89.10;;;;;;5073336;28;19963;-74
2023/10/14 11:41:39;;;;;;;;;;;17.60;89.20;;;;;;5070148;28;19929;-74
2023/10/14 11:44:06;;;;;;;;;;;17.60;89.10;;;;;;5067663;28;19928;-73
2023/10/14 11:46:38;;;;;;;;;;;17.60;89.00;;;;;;5068436;28;19928;-74
2023/10/14 11:49:08;;;;;;;;;;;17.60;88.90;;;;;;5069784;28;19986;-74
2023/10/14 11:51:37;;;;;;;;;;;17.60;88.90;;;;;;5066219;28;19928;-74
2023/10/14 11:54:04;;;;;;;;;;;17.50;88.80;;;;;;5066290;28;20593;-74
2023/10/14 11:56:32;;;;;;;;;;;17.50;88.70;;;;;;5064521;28;19932;-74
2023/10/14 11:59:00;;;;;;;;;;;17.60;88.80;;;;;;5066100;28;20310;-74
2023/10/14 12:01:28;;;;;;;;;;;17.50;88.70;;;;;;5064894;28;20382;-74
2023/10/14 12:03:55;;;;;;;;;;;17.50;88.60;;;;;;5062651;28;19928;-73
2023/10/14 12:06:23;;;;;;;;;;;17.50;89.40;;;;;;5062073;28;19936;-74
2023/10/14 12:08:51;;;;;;;;;;;17.50;88.70;;;;;;5060769;28;19929;-74
2023/10/14 12:11:18;;;;;;;;;;;17.50;88.70;;;;;;5065811;28;19928;-75
2023/10/14 12:13:44;;;;;;;;;;;17.50;88.70;;;;;;5064908;28;19939;-74
2023/10/14 12:16:11;;;;;;;;;;;17.50;88.70;;;;;;5063560;28;19936;-74
2023/10/14 12:18:37;;;;;;;;;;;17.50;88.60;;;;;;5064942;28;19928;-74
2023/10/14 12:21:04;;;;;;;;;;;17.50;88.60;;;;;;5066475;28;19935;-74
2023/10/14 12:23:32;;;;;;;;;;;17.50;88.60;;;;;;5062278;28;20496;-74
2023/10/14 12:26:00;;;;;;;;;;;17.50;88.50;;;;;;5063322;28;19932;-75
2023/10/14 12:28:27;;;;;;;;;;;17.50;88.40;;;;;;5064456;28;20028;-73
2023/10/14 12:30:56;;;;;;;;;;;17.50;88.40;;;;;;5064985;28;21148;-74
2023/10/14 12:33:24;;;;;;;;;;;17.50;87.80;;;;;;5063653;28;19940;-74
2023/10/14 12:35:52;;;;;;;;;;;17.50;87.60;;;;;;5070593;28;19935;-74
2023/10/14 12:38:20;;;;;;;;;;;17.50;87.40;;;;;;5064636;28;19979;-74
2023/10/14 12:40:49;;;;;;;;;;;17.50;87.50;;;;;;5060285;28;19981;-75
2023/10/14 12:43:18;;;;;;;;;;;17.50;87.40;;;;;;5059765;28;20344;-74
2023/10/14 12:45:49;;;;;;;;;;;17.50;87.30;;;;;;5061589;28;19931;-74
2023/10/14 12:48:16;;;;;;;;;;;17.50;87.10;;;;;;5067858;28;19938;-75
2023/10/14 12:50:46;;;;;;;;;;;17.50;86.90;;;;;;5065484;28;19924;-74
2023/10/14 12:53:12;;;;;;;;;;;17.50;86.70;;;;;;5065343;28;20388;-74
2023/10/14 12:55:42;;;;;;;;;;;17.50;86.70;;;;;;5063673;28;20452;-75
2023/10/14 12:58:10;;;;;;;;;;;17.50;86.80;;;;;;5063168;28;20378;-75
2023/10/14 13:00:36;;;;;;;;;;;17.50;86.70;;;;;;5060499;28;20291;-75
2023/10/14 13:03:05;;;;;;;;;;;17.50;86.70;;;;;;5063128;28;19924;-74
2023/10/14 13:05:32;;;;;;;;;;;17.50;86.60;;;;;;5058515;28;19935;-75
2023/10/14 13:07:58;;;;;;;;;;;17.50;86.20;;;;;;5064099;28;19928;-75
2023/10/14 13:10:28;;;;;;;;;;;17.50;86.10;;;;;;5060632;28;19924;-75
2023/10/14 13:12:55;;;;;;;;;;;17.50;85.90;;;;;;5062865;28;19994;-75
2023/10/14 13:15:28;;;;;;;;;;;17.50;85.70;;;;;;5057696;28;19932;-75
2023/10/14 13:17:57;;;;;;;;;;;17.50;85.50;;;;;;5061205;28;20468;-76
2023/10/14 13:20:27;;;;;;;;;;;17.50;85.20;;;;;;5061140;28;19935;-75
2023/10/14 13:22:57;;;;;;;;;;;17.50;85.10;;;;;;5062368;28;19933;-76
2023/10/14 13:25:23;;;;;;;;;;;17.50;85.10;;;;;;5061929;28;19932;-75
2023/10/14 13:27:51;;;;;;;;;;;17.50;85.00;;;;;;5064127;28;19928;-76
2023/10/14 13:30:22;;;;;;;;;;;17.50;84.90;;;;;;5060502;28;19994;-76
2023/10/14 13:32:54;;;;;;;;;;;17.50;84.80;;;;;;5062036;28;19939;-75
2023/10/14 13:35:20;;;;;;;;;;;17.50;84.50;;;;;;5062688;28;19928;-76
2023/10/14 13:37:47;;;;;;;;;;;17.60;84.60;;;;;;5066021;28;20621;-75
2023/10/14 13:40:20;;;;;;;;;;;17.60;84.50;;;;;;5066306;28;19935;-77
2023/10/14 13:42:47;;;;;;;;;;;17.50;84.50;;;;;;5064822;28;19928;-75
2023/10/14 13:45:15;;;;;;;;;;;17.50;84.40;;;;;;5066577;28;20535;-75
2023/10/14 13:47:41;;;;;;;;;;;17.50;84.10;;;;;;5067274;28;19930;-76
2023/10/14 13:50:10;;;;;;;;;;;17.50;84.10;;;;;;5069473;28;19928;-76
2023/10/14 13:52:38;;;;;;;;;;;17.50;84.00;;;;;;5067038;28;20362;-76
2023/10/14 13:55:06;;;;;;;;;;;17.50;83.70;;;;;;5065587;28;20031;-75
2023/10/14 13:57:33;;;;;;;;;;;17.50;83.40;;;;;;5065711;28;20322;-75
2023/10/14 14:00:00;;;;;;;;;;;17.50;83.40;;;;;;5066246;28;20049;-76
2023/10/14 14:02:26;;;;;;;;;;;17.50;83.40;;;;;;5063096;28;20015;-76
2023/10/14 14:04:53;;;;;;;;;;;17.50;83.30;;;;;;5065017;28;19928;-76
2023/10/14 14:07:21;;;;;;;;;;;17.50;83.10;;;;;;5063745;28;19939;-76
2023/10/14 14:09:48;;;;;;;;;;;17.50;83.00;;;;;;5066463;28;19928;-76
2023/10/14 14:12:15;;;;;;;;;;;17.50;82.40;;;;;;5070006;28;19929;-76
2023/10/14 14:14:41;;;;;;;;;;;17.50;82.10;;;;;;5067389;28;19932;-76
2023/10/14 14:17:08;;;;;;;;;;;17.50;82.00;;;;;;5066375;28;19936;-76
2023/10/14 14:19:39;;;;;;;;;;;17.50;81.70;;;;;;5065433;28;19928;-76
2023/10/14 14:22:06;;;;;;;;;;;17.50;81.10;;;;;;5066756;28;19932;-75
2023/10/14 14:24:34;;;;;;;;;;;17.50;80.40;;;;;;5065466;28;19932;-76
2023/10/14 14:27:01;;;;;;;;;;;17.40;79.80;;;;;;5065892;28;20389;-76
2023/10/14 14:29:30;;;;;;;;;;;17.40;79.60;;;;;;5064848;28;19932;-75